sensor_id;sensor_type;location;lat;lon;timestamp;P1;durP1;ratioP1;P2;durP2;ratioP2
62687;SDS011;48752;51.056;17.056;2023-07-22T00:00:29;5.70;;;4.05;;
62687;SDS011;48752;51.056;17.056;2023-07-22T00:02:55;4.88;;;4.00;;
62687;SDS011;48752;51.056;17.056;2023-07-22T00:05:21;5.85;;;4.50;;
62687;SDS011;48752;51.056;17.056;2023-07-22T00:07:49;5.13;;;3.97;;
62687;SDS011;48752;51.056;17.056;2023-07-22T00:10:15;5.82;;;4.78;;
62687;SDS011;48752;51.056;17.056;2023-07-22T00:12:42;5.40;;;3.83;;
62687;SDS011;48752;51.056;17.056;2023-07-22T00:15:16;4.65;;;3.90;;
62687;SDS011;48752;51.056;17.056;2023-07-22T00:17:41;5.57;;;3.85;;
62687;SDS011;48752;51.056;17.056;2023-07-22T00:20:08;4.40;;;4.00;;
62687;SDS011;48752;51.056;17.056;2023-07-22T00:22:40;5.90;;;4.30;;
62687;SDS011;48752;51.056;17.056;2023-07-22T00:25:07;7.10;;;4.40;;
62687;SDS011;48752;51.056;17.056;2023-07-22T00:27:37;6.70;;;3.92;;
62687;SDS011;48752;51.056;17.056;2023-07-22T00:30:14;6.65;;;4.05;;
62687;SDS011;48752;51.056;17.056;2023-07-22T00:32:40;5.20;;;4.00;;
62687;SDS011;48752;51.056;17.056;2023-07-22T00:35:08;6.68;;;4.07;;
62687;SDS011;48752;51.056;17.056;2023-07-22T00:37:35;6.72;;;4.10;;
62687;SDS011;48752;51.056;17.056;2023-07-22T00:40:01;4.95;;;4.40;;
62687;SDS011;48752;51.056;17.056;2023-07-22T00:42:36;7.30;;;3.92;;
62687;SDS011;48752;51.056;17.056;2023-07-22T00:45:02;8.13;;;4.70;;
62687;SDS011;48752;51.056;17.056;2023-07-22T00:47:30;5.80;;;4.40;;
62687;SDS011;48752;51.056;17.056;2023-07-22T00:50:06;6.05;;;5.38;;
62687;SDS011;48752;51.056;17.056;2023-07-22T00:52:36;5.65;;;5.15;;
62687;SDS011;48752;51.056;17.056;2023-07-22T00:55:05;5.45;;;4.68;;
62687;SDS011;48752;51.056;17.056;2023-07-22T00:57:31;5.93;;;4.57;;
62687;SDS011;48752;51.056;17.056;2023-07-22T00:59:58;7.03;;;4.25;;
62687;SDS011;48752;51.056;17.056;2023-07-22T01:02:26;7.80;;;4.63;;
62687;SDS011;48752;51.056;17.056;2023-07-22T01:04:55;6.75;;;4.75;;
62687;SDS011;48752;51.056;17.056;2023-07-22T01:07:21;5.88;;;4.60;;
62687;SDS011;48752;51.056;17.056;2023-07-22T01:09:47;5.07;;;4.60;;
62687;SDS011;48752;51.056;17.056;2023-07-22T01:12:14;7.60;;;4.90;;
62687;SDS011;48752;51.056;17.056;2023-07-22T01:14:41;6.18;;;5.25;;
62687;SDS011;48752;51.056;17.056;2023-07-22T01:17:08;7.32;;;4.15;;
62687;SDS011;48752;51.056;17.056;2023-07-22T01:19:35;8.57;;;4.90;;
62687;SDS011;48752;51.056;17.056;2023-07-22T01:22:01;8.05;;;4.30;;
62687;SDS011;48752;51.056;17.056;2023-07-22T01:24:29;5.60;;;4.68;;
62687;SDS011;48752;51.056;17.056;2023-07-22T01:26:55;5.63;;;4.07;;
62687;SDS011;48752;51.056;17.056;2023-07-22T01:29:24;7.20;;;4.20;;
62687;SDS011;48752;51.056;17.056;2023-07-22T01:31:51;6.10;;;4.80;;
62687;SDS011;48752;51.056;17.056;2023-07-22T01:34:18;7.13;;;4.70;;
62687;SDS011;48752;51.056;17.056;2023-07-22T01:36:47;5.38;;;4.47;;
62687;SDS011;48752;51.056;17.056;2023-07-22T01:39:14;5.38;;;4.88;;
62687;SDS011;48752;51.056;17.056;2023-07-22T01:41:41;6.65;;;5.10;;
62687;SDS011;48752;51.056;17.056;2023-07-22T01:44:07;6.80;;;4.93;;
62687;SDS011;48752;51.056;17.056;2023-07-22T01:46:40;5.03;;;4.47;;
62687;SDS011;48752;51.056;17.056;2023-07-22T01:49:09;5.93;;;5.00;;
62687;SDS011;48752;51.056;17.056;2023-07-22T01:51:37;7.10;;;5.13;;
62687;SDS011;48752;51.056;17.056;2023-07-22T01:54:05;9.40;;;4.97;;
62687;SDS011;48752;51.056;17.056;2023-07-22T01:56:31;6.32;;;5.00;;
62687;SDS011;48752;51.056;17.056;2023-07-22T01:58:58;5.82;;;5.22;;
62687;SDS011;48752;51.056;17.056;2023-07-22T02:01:26;9.90;;;5.60;;
62687;SDS011;48752;51.056;17.056;2023-07-22T02:03:53;6.70;;;5.53;;
62687;SDS011;48752;51.056;17.056;2023-07-22T02:06:20;7.50;;;5.32;;
62687;SDS011;48752;51.056;17.056;2023-07-22T02:08:47;7.38;;;5.45;;
62687;SDS011;48752;51.056;17.056;2023-07-22T02:11:14;6.65;;;5.47;;
62687;SDS011;48752;51.056;17.056;2023-07-22T02:13:39;5.82;;;5.20;;
62687;SDS011;48752;51.056;17.056;2023-07-22T02:16:06;6.47;;;5.88;;
62687;SDS011;48752;51.056;17.056;2023-07-22T02:18:31;7.15;;;5.95;;
62687;SDS011;48752;51.056;17.056;2023-07-22T02:20:59;11.93;;;6.95;;
62687;SDS011;48752;51.056;17.056;2023-07-22T02:23:25;7.40;;;6.47;;
62687;SDS011;48752;51.056;17.056;2023-07-22T02:25:52;10.35;;;6.05;;
62687;SDS011;48752;51.056;17.056;2023-07-22T02:28:26;11.13;;;7.45;;
62687;SDS011;48752;51.056;17.056;2023-07-22T02:30:51;9.85;;;6.30;;
62687;SDS011;48752;51.056;17.056;2023-07-22T02:33:18;10.73;;;7.10;;
62687;SDS011;48752;51.056;17.056;2023-07-22T02:35:52;9.43;;;7.03;;
62687;SDS011;48752;51.056;17.056;2023-07-22T02:38:18;7.65;;;6.85;;
62687;SDS011;48752;51.056;17.056;2023-07-22T02:40:47;7.97;;;6.88;;
62687;SDS011;48752;51.056;17.056;2023-07-22T02:43:14;7.60;;;6.80;;
62687;SDS011;48752;51.056;17.056;2023-07-22T02:46:03;12.25;;;7.60;;
62687;SDS011;48752;51.056;17.056;2023-07-22T02:48:31;10.85;;;7.28;;
62687;SDS011;48752;51.056;17.056;2023-07-22T02:51:04;7.63;;;6.53;;
62687;SDS011;48752;51.056;17.056;2023-07-22T02:53:37;7.85;;;6.20;;
62687;SDS011;48752;51.056;17.056;2023-07-22T02:56:04;10.80;;;6.60;;
62687;SDS011;48752;51.056;17.056;2023-07-22T02:58:33;10.32;;;6.63;;
62687;SDS011;48752;51.056;17.056;2023-07-22T03:01:00;6.97;;;5.88;;
62687;SDS011;48752;51.056;17.056;2023-07-22T03:03:29;7.18;;;6.38;;
62687;SDS011;48752;51.056;17.056;2023-07-22T03:06:02;9.98;;;6.32;;
62687;SDS011;48752;51.056;17.056;2023-07-22T03:08:29;14.10;;;6.70;;
62687;SDS011;48752;51.056;17.056;2023-07-22T03:10:56;7.90;;;6.40;;
62687;SDS011;48752;51.056;17.056;2023-07-22T03:13:24;7.10;;;6.43;;
62687;SDS011;48752;51.056;17.056;2023-07-22T03:15:50;9.10;;;6.82;;
62687;SDS011;48752;51.056;17.056;2023-07-22T03:18:17;7.30;;;5.82;;
62687;SDS011;48752;51.056;17.056;2023-07-22T03:20:42;6.47;;;5.78;;
62687;SDS011;48752;51.056;17.056;2023-07-22T03:23:08;5.82;;;5.22;;
62687;SDS011;48752;51.056;17.056;2023-07-22T03:25:35;7.43;;;5.80;;
62687;SDS011;48752;51.056;17.056;2023-07-22T03:28:02;6.70;;;5.53;;
62687;SDS011;48752;51.056;17.056;2023-07-22T03:30:29;8.60;;;5.65;;
62687;SDS011;48752;51.056;17.056;2023-07-22T03:32:55;6.47;;;5.88;;
62687;SDS011;48752;51.056;17.056;2023-07-22T03:35:21;10.13;;;5.78;;
62687;SDS011;48752;51.056;17.056;2023-07-22T03:37:48;5.80;;;5.00;;
62687;SDS011;48752;51.056;17.056;2023-07-22T03:40:14;11.52;;;5.38;;
62687;SDS011;48752;51.056;17.056;2023-07-22T03:42:54;7.75;;;4.80;;
62687;SDS011;48752;51.056;17.056;2023-07-22T03:45:22;6.93;;;5.32;;
62687;SDS011;48752;51.056;17.056;2023-07-22T03:47:59;5.82;;;4.95;;
62687;SDS011;48752;51.056;17.056;2023-07-22T03:50:26;6.97;;;5.03;;
62687;SDS011;48752;51.056;17.056;2023-07-22T03:52:55;6.45;;;4.75;;
62687;SDS011;48752;51.056;17.056;2023-07-22T03:55:21;8.55;;;4.45;;
62687;SDS011;48752;51.056;17.056;2023-07-22T03:57:48;5.22;;;4.60;;
62687;SDS011;48752;51.056;17.056;2023-07-22T04:00:15;6.15;;;4.88;;
62687;SDS011;48752;51.056;17.056;2023-07-22T04:02:42;6.80;;;4.82;;
62687;SDS011;48752;51.056;17.056;2023-07-22T04:05:09;6.95;;;5.20;;
62687;SDS011;48752;51.056;17.056;2023-07-22T04:07:35;8.73;;;4.72;;
62687;SDS011;48752;51.056;17.056;2023-07-22T04:10:02;5.90;;;5.10;;
62687;SDS011;48752;51.056;17.056;2023-07-22T04:12:30;6.82;;;4.13;;
62687;SDS011;48752;51.056;17.056;2023-07-22T04:14:56;7.40;;;4.80;;
62687;SDS011;48752;51.056;17.056;2023-07-22T04:17:22;6.82;;;5.00;;
62687;SDS011;48752;51.056;17.056;2023-07-22T04:19:50;7.57;;;4.93;;
62687;SDS011;48752;51.056;17.056;2023-07-22T04:22:24;7.53;;;5.80;;
62687;SDS011;48752;51.056;17.056;2023-07-22T04:24:53;8.15;;;5.57;;
62687;SDS011;48752;51.056;17.056;2023-07-22T04:27:21;9.98;;;5.60;;
62687;SDS011;48752;51.056;17.056;2023-07-22T04:29:46;7.28;;;5.47;;
62687;SDS011;48752;51.056;17.056;2023-07-22T04:32:14;9.95;;;5.55;;
62687;SDS011;48752;51.056;17.056;2023-07-22T04:34:41;9.00;;;5.47;;
62687;SDS011;48752;51.056;17.056;2023-07-22T04:37:08;10.07;;;5.32;;
62687;SDS011;48752;51.056;17.056;2023-07-22T04:39:34;7.68;;;5.65;;
62687;SDS011;48752;51.056;17.056;2023-07-22T04:42:01;6.28;;;5.10;;
62687;SDS011;48752;51.056;17.056;2023-07-22T04:44:28;7.63;;;4.65;;
62687;SDS011;48752;51.056;17.056;2023-07-22T04:46:54;9.88;;;5.00;;
62687;SDS011;48752;51.056;17.056;2023-07-22T04:49:21;7.85;;;4.68;;
62687;SDS011;48752;51.056;17.056;2023-07-22T04:51:47;8.50;;;5.13;;
62687;SDS011;48752;51.056;17.056;2023-07-22T04:54:13;7.30;;;4.60;;
62687;SDS011;48752;51.056;17.056;2023-07-22T04:56:40;5.82;;;4.47;;
62687;SDS011;48752;51.056;17.056;2023-07-22T04:59:07;8.50;;;4.70;;
62687;SDS011;48752;51.056;17.056;2023-07-22T05:01:35;13.65;;;4.43;;
62687;SDS011;48752;51.056;17.056;2023-07-22T05:04:02;6.35;;;4.55;;
62687;SDS011;48752;51.056;17.056;2023-07-22T05:06:29;10.77;;;4.22;;
62687;SDS011;48752;51.056;17.056;2023-07-22T05:08:56;13.80;;;4.60;;
62687;SDS011;48752;51.056;17.056;2023-07-22T05:11:21;5.68;;;3.75;;
62687;SDS011;48752;51.056;17.056;2023-07-22T05:13:49;9.88;;;3.70;;
62687;SDS011;48752;51.056;17.056;2023-07-22T05:16:15;5.13;;;3.40;;
62687;SDS011;48752;51.056;17.056;2023-07-22T05:18:42;5.15;;;3.50;;
62687;SDS011;48752;51.056;17.056;2023-07-22T05:21:09;6.38;;;3.13;;
62687;SDS011;48752;51.056;17.056;2023-07-22T05:23:38;4.35;;;3.03;;
62687;SDS011;48752;51.056;17.056;2023-07-22T05:26:04;3.55;;;3.15;;
62687;SDS011;48752;51.056;17.056;2023-07-22T05:28:31;3.05;;;2.65;;
62687;SDS011;48752;51.056;17.056;2023-07-22T05:30:58;3.38;;;2.97;;
62687;SDS011;48752;51.056;17.056;2023-07-22T05:33:24;3.10;;;2.85;;
62687;SDS011;48752;51.056;17.056;2023-07-22T05:35:50;5.97;;;2.72;;
62687;SDS011;48752;51.056;17.056;2023-07-22T05:38:15;3.80;;;3.05;;
62687;SDS011;48752;51.056;17.056;2023-07-22T05:40:41;5.30;;;2.67;;
62687;SDS011;48752;51.056;17.056;2023-07-22T05:43:06;4.05;;;2.97;;
62687;SDS011;48752;51.056;17.056;2023-07-22T05:45:32;6.63;;;2.75;;
62687;SDS011;48752;51.056;17.056;2023-07-22T05:47:58;4.85;;;2.90;;
62687;SDS011;48752;51.056;17.056;2023-07-22T05:50:24;3.40;;;2.63;;
62687;SDS011;48752;51.056;17.056;2023-07-22T05:52:51;3.30;;;3.00;;
62687;SDS011;48752;51.056;17.056;2023-07-22T05:55:16;3.85;;;2.45;;
62687;SDS011;48752;51.056;17.056;2023-07-22T05:57:42;3.45;;;2.83;;
62687;SDS011;48752;51.056;17.056;2023-07-22T06:00:07;3.70;;;2.45;;
62687;SDS011;48752;51.056;17.056;2023-07-22T06:02:34;5.68;;;2.70;;
62687;SDS011;48752;51.056;17.056;2023-07-22T06:05:00;3.55;;;2.63;;
62687;SDS011;48752;51.056;17.056;2023-07-22T06:07:27;4.10;;;2.92;;
62687;SDS011;48752;51.056;17.056;2023-07-22T06:09:55;2.83;;;2.58;;
62687;SDS011;48752;51.056;17.056;2023-07-22T06:12:20;4.65;;;2.53;;
62687;SDS011;48752;51.056;17.056;2023-07-22T06:14:45;2.95;;;2.30;;
62687;SDS011;48752;51.056;17.056;2023-07-22T06:17:11;4.15;;;2.67;;
62687;SDS011;48752;51.056;17.056;2023-07-22T06:19:42;6.22;;;2.90;;
62687;SDS011;48752;51.056;17.056;2023-07-22T06:22:07;4.32;;;2.30;;
62687;SDS011;48752;51.056;17.056;2023-07-22T06:24:34;3.75;;;2.42;;
62687;SDS011;48752;51.056;17.056;2023-07-22T06:27:11;4.78;;;2.42;;
62687;SDS011;48752;51.056;17.056;2023-07-22T06:29:36;3.55;;;2.58;;
62687;SDS011;48752;51.056;17.056;2023-07-22T06:32:01;4.35;;;2.15;;
62687;SDS011;48752;51.056;17.056;2023-07-22T06:34:27;5.68;;;2.10;;
62687;SDS011;48752;51.056;17.056;2023-07-22T06:36:55;4.97;;;2.30;;
62687;SDS011;48752;51.056;17.056;2023-07-22T06:39:21;3.85;;;1.95;;
62687;SDS011;48752;51.056;17.056;2023-07-22T06:41:47;5.18;;;2.50;;
62687;SDS011;48752;51.056;17.056;2023-07-22T06:44:13;2.60;;;1.85;;
62687;SDS011;48752;51.056;17.056;2023-07-22T06:46:41;2.50;;;1.88;;
62687;SDS011;48752;51.056;17.056;2023-07-22T06:49:06;6.22;;;2.20;;
62687;SDS011;48752;51.056;17.056;2023-07-22T06:51:35;3.58;;;2.42;;
62687;SDS011;48752;51.056;17.056;2023-07-22T06:54:02;2.10;;;1.90;;
62687;SDS011;48752;51.056;17.056;2023-07-22T06:56:29;6.07;;;2.63;;
62687;SDS011;48752;51.056;17.056;2023-07-22T06:58:56;4.15;;;2.17;;
62687;SDS011;48752;51.056;17.056;2023-07-22T07:01:22;4.97;;;2.15;;
62687;SDS011;48752;51.056;17.056;2023-07-22T07:03:48;4.53;;;2.40;;
62687;SDS011;48752;51.056;17.056;2023-07-22T07:06:13;4.22;;;2.40;;
62687;SDS011;48752;51.056;17.056;2023-07-22T07:08:41;2.78;;;2.20;;
62687;SDS011;48752;51.056;17.056;2023-07-22T07:11:07;2.65;;;2.08;;
62687;SDS011;48752;51.056;17.056;2023-07-22T07:13:33;3.33;;;2.30;;
62687;SDS011;48752;51.056;17.056;2023-07-22T07:16:19;5.28;;;1.98;;
62687;SDS011;48752;51.056;17.056;2023-07-22T07:18:45;4.60;;;2.03;;
62687;SDS011;48752;51.056;17.056;2023-07-22T07:21:11;6.45;;;2.20;;
62687;SDS011;48752;51.056;17.056;2023-07-22T07:23:47;4.25;;;2.22;;
62687;SDS011;48752;51.056;17.056;2023-07-22T07:26:14;2.55;;;2.10;;
62687;SDS011;48752;51.056;17.056;2023-07-22T07:28:54;6.40;;;2.30;;
62687;SDS011;48752;51.056;17.056;2023-07-22T07:31:26;3.58;;;2.15;;
62687;SDS011;48752;51.056;17.056;2023-07-22T07:33:52;2.95;;;2.30;;
62687;SDS011;48752;51.056;17.056;2023-07-22T07:36:18;2.25;;;1.92;;
62687;SDS011;48752;51.056;17.056;2023-07-22T07:38:57;3.47;;;1.70;;
62687;SDS011;48752;51.056;17.056;2023-07-22T07:41:23;2.45;;;1.70;;
62687;SDS011;48752;51.056;17.056;2023-07-22T07:43:48;1.73;;;1.63;;
62687;SDS011;48752;51.056;17.056;2023-07-22T07:46:17;4.40;;;1.85;;
62687;SDS011;48752;51.056;17.056;2023-07-22T07:48:48;2.10;;;1.63;;
62687;SDS011;48752;51.056;17.056;2023-07-22T07:51:17;3.95;;;1.67;;
62687;SDS011;48752;51.056;17.056;2023-07-22T07:53:43;3.15;;;1.40;;
62687;SDS011;48752;51.056;17.056;2023-07-22T07:56:10;3.40;;;2.33;;
62687;SDS011;48752;51.056;17.056;2023-07-22T07:58:36;2.28;;;1.60;;
62687;SDS011;48752;51.056;17.056;2023-07-22T08:01:07;1.73;;;1.38;;
62687;SDS011;48752;51.056;17.056;2023-07-22T08:03:33;3.55;;;1.70;;
62687;SDS011;48752;51.056;17.056;2023-07-22T08:06:01;2.75;;;1.60;;
62687;SDS011;48752;51.056;17.056;2023-07-22T08:08:28;4.28;;;1.70;;
62687;SDS011;48752;51.056;17.056;2023-07-22T08:11:01;2.20;;;1.60;;
62687;SDS011;48752;51.056;17.056;2023-07-22T08:13:27;3.70;;;1.73;;
62687;SDS011;48752;51.056;17.056;2023-07-22T08:15:53;4.05;;;1.70;;
62687;SDS011;48752;51.056;17.056;2023-07-22T08:18:20;2.42;;;1.70;;
62687;SDS011;48752;51.056;17.056;2023-07-22T08:20:48;2.17;;;1.60;;
62687;SDS011;48752;51.056;17.056;2023-07-22T08:23:13;2.97;;;1.50;;
62687;SDS011;48752;51.056;17.056;2023-07-22T08:25:39;2.50;;;1.70;;
62687;SDS011;48752;51.056;17.056;2023-07-22T08:28:04;2.50;;;1.52;;
62687;SDS011;48752;51.056;17.056;2023-07-22T08:30:31;3.78;;;1.70;;
62687;SDS011;48752;51.056;17.056;2023-07-22T08:32:56;4.03;;;1.85;;
62687;SDS011;48752;51.056;17.056;2023-07-22T08:35:22;3.35;;;1.60;;
62687;SDS011;48752;51.056;17.056;2023-07-22T08:37:49;3.22;;;1.50;;
62687;SDS011;48752;51.056;17.056;2023-07-22T08:40:17;3.05;;;1.48;;
62687;SDS011;48752;51.056;17.056;2023-07-22T08:42:43;1.80;;;1.30;;
62687;SDS011;48752;51.056;17.056;2023-07-22T08:45:09;1.20;;;1.10;;
62687;SDS011;48752;51.056;17.056;2023-07-22T08:47:44;4.55;;;1.25;;
62687;SDS011;48752;51.056;17.056;2023-07-22T08:50:13;3.35;;;1.45;;
62687;SDS011;48752;51.056;17.056;2023-07-22T08:52:40;1.55;;;1.23;;
62687;SDS011;48752;51.056;17.056;2023-07-22T08:55:07;2.08;;;1.27;;
62687;SDS011;48752;51.056;17.056;2023-07-22T08:57:41;2.17;;;1.30;;
62687;SDS011;48752;51.056;17.056;2023-07-22T09:00:08;1.42;;;1.33;;
62687;SDS011;48752;51.056;17.056;2023-07-22T09:02:35;2.00;;;1.00;;
62687;SDS011;48752;51.056;17.056;2023-07-22T09:05:06;3.90;;;1.33;;
62687;SDS011;48752;51.056;17.056;2023-07-22T09:07:34;1.17;;;1.10;;
62687;SDS011;48752;51.056;17.056;2023-07-22T09:10:13;2.30;;;1.23;;
62687;SDS011;48752;51.056;17.056;2023-07-22T09:12:41;5.70;;;1.33;;
62687;SDS011;48752;51.056;17.056;2023-07-22T09:15:08;1.50;;;1.20;;
62687;SDS011;48752;51.056;17.056;2023-07-22T09:17:35;3.40;;;1.23;;
62687;SDS011;48752;51.056;17.056;2023-07-22T09:20:02;3.05;;;1.42;;
62687;SDS011;48752;51.056;17.056;2023-07-22T09:22:28;3.63;;;1.40;;
62687;SDS011;48752;51.056;17.056;2023-07-22T09:25:04;1.33;;;1.20;;
62687;SDS011;48752;51.056;17.056;2023-07-22T09:27:39;2.72;;;1.40;;
62687;SDS011;48752;51.056;17.056;2023-07-22T09:30:17;1.67;;;1.35;;
62687;SDS011;48752;51.056;17.056;2023-07-22T09:32:46;3.17;;;1.50;;
62687;SDS011;48752;51.056;17.056;2023-07-22T09:35:11;2.22;;;1.92;;
62687;SDS011;48752;51.056;17.056;2023-07-22T09:37:37;1.67;;;1.30;;
62687;SDS011;48752;51.056;17.056;2023-07-22T09:40:25;2.92;;;1.30;;
62687;SDS011;48752;51.056;17.056;2023-07-22T09:42:51;6.43;;;1.63;;
62687;SDS011;48752;51.056;17.056;2023-07-22T09:45:18;4.72;;;1.80;;
62687;SDS011;48752;51.056;17.056;2023-07-22T09:47:46;3.83;;;1.90;;
62687;SDS011;48752;51.056;17.056;2023-07-22T09:50:19;2.90;;;1.50;;
62687;SDS011;48752;51.056;17.056;2023-07-22T09:52:49;1.52;;;1.42;;
62687;SDS011;48752;51.056;17.056;2023-07-22T09:55:20;4.65;;;2.00;;
62687;SDS011;48752;51.056;17.056;2023-07-22T09:57:53;2.22;;;1.75;;
62687;SDS011;48752;51.056;17.056;2023-07-22T10:00:19;3.70;;;1.60;;
62687;SDS011;48752;51.056;17.056;2023-07-22T10:02:48;3.08;;;1.70;;
62687;SDS011;48752;51.056;17.056;2023-07-22T10:05:18;2.72;;;1.90;;
62687;SDS011;48752;51.056;17.056;2023-07-22T10:07:54;4.68;;;2.20;;
62687;SDS011;48752;51.056;17.056;2023-07-22T10:10:24;4.00;;;2.03;;
62687;SDS011;48752;51.056;17.056;2023-07-22T10:12:51;4.65;;;2.20;;
62687;SDS011;48752;51.056;17.056;2023-07-22T10:15:19;4.43;;;1.90;;
62687;SDS011;48752;51.056;17.056;2023-07-22T10:17:44;2.15;;;2.00;;
62687;SDS011;48752;51.056;17.056;2023-07-22T10:20:11;3.17;;;2.17;;
62687;SDS011;48752;51.056;17.056;2023-07-22T10:22:43;3.55;;;2.13;;
62687;SDS011;48752;51.056;17.056;2023-07-22T10:25:10;3.17;;;1.90;;
62687;SDS011;48752;51.056;17.056;2023-07-22T10:27:37;4.45;;;1.80;;
62687;SDS011;48752;51.056;17.056;2023-07-22T10:30:04;3.42;;;1.80;;
62687;SDS011;48752;51.056;17.056;2023-07-22T10:32:31;3.42;;;2.17;;
62687;SDS011;48752;51.056;17.056;2023-07-22T10:34:57;1.95;;;1.80;;
62687;SDS011;48752;51.056;17.056;2023-07-22T10:37:29;2.20;;;1.80;;
62687;SDS011;48752;51.056;17.056;2023-07-22T10:39:58;5.20;;;2.72;;
62687;SDS011;48752;51.056;17.056;2023-07-22T10:42:24;6.18;;;2.10;;
62687;SDS011;48752;51.056;17.056;2023-07-22T10:44:50;3.03;;;1.65;;
62687;SDS011;48752;51.056;17.056;2023-07-22T10:47:31;2.25;;;2.05;;
62687;SDS011;48752;51.056;17.056;2023-07-22T10:50:07;5.18;;;2.00;;
62687;SDS011;48752;51.056;17.056;2023-07-22T10:52:37;2.20;;;1.70;;
62687;SDS011;48752;51.056;17.056;2023-07-22T10:55:14;3.88;;;1.92;;
62687;SDS011;48752;51.056;17.056;2023-07-22T10:57:47;1.90;;;1.60;;
62687;SDS011;48752;51.056;17.056;2023-07-22T11:00:20;2.75;;;1.77;;
62687;SDS011;48752;51.056;17.056;2023-07-22T11:02:47;3.22;;;2.13;;
62687;SDS011;48752;51.056;17.056;2023-07-22T11:05:46;4.47;;;2.03;;
62687;SDS011;48752;51.056;17.056;2023-07-22T11:08:12;2.10;;;1.83;;
62687;SDS011;48752;51.056;17.056;2023-07-22T11:10:38;5.72;;;2.17;;
62687;SDS011;48752;51.056;17.056;2023-07-22T11:13:18;5.15;;;1.92;;
62687;SDS011;48752;51.056;17.056;2023-07-22T11:15:47;5.00;;;2.03;;
62687;SDS011;48752;51.056;17.056;2023-07-22T11:18:13;6.38;;;1.95;;
62687;SDS011;48752;51.056;17.056;2023-07-22T11:20:38;2.10;;;1.90;;
62687;SDS011;48752;51.056;17.056;2023-07-22T11:23:03;2.50;;;1.90;;
62687;SDS011;48752;51.056;17.056;2023-07-22T11:25:29;6.18;;;2.10;;
62687;SDS011;48752;51.056;17.056;2023-07-22T11:27:54;2.53;;;1.73;;
62687;SDS011;48752;51.056;17.056;2023-07-22T11:30:19;2.33;;;2.05;;
62687;SDS011;48752;51.056;17.056;2023-07-22T11:32:49;2.95;;;2.65;;
62687;SDS011;48752;51.056;17.056;2023-07-22T11:35:15;4.20;;;1.90;;
62687;SDS011;48752;51.056;17.056;2023-07-22T11:37:41;2.55;;;1.90;;
62687;SDS011;48752;51.056;17.056;2023-07-22T11:40:07;6.30;;;1.88;;
62687;SDS011;48752;51.056;17.056;2023-07-22T11:42:36;2.97;;;1.85;;
62687;SDS011;48752;51.056;17.056;2023-07-22T11:45:03;2.13;;;1.70;;
62687;SDS011;48752;51.056;17.056;2023-07-22T11:47:29;2.22;;;1.80;;
62687;SDS011;48752;51.056;17.056;2023-07-22T11:49:56;3.80;;;1.65;;
62687;SDS011;48752;51.056;17.056;2023-07-22T11:52:21;2.83;;;1.90;;
62687;SDS011;48752;51.056;17.056;2023-07-22T11:54:48;2.83;;;2.22;;
62687;SDS011;48752;51.056;17.056;2023-07-22T11:57:14;5.45;;;2.13;;
62687;SDS011;48752;51.056;17.056;2023-07-22T12:07:38;4.20;;;2.25;;
62687;SDS011;48752;51.056;17.056;2023-07-22T12:10:06;4.65;;;2.00;;
62687;SDS011;48752;51.056;17.056;2023-07-22T12:15:19;3.95;;;1.90;;
62687;SDS011;48752;51.056;17.056;2023-07-22T12:17:55;5.25;;;2.30;;
62687;SDS011;48752;51.056;17.056;2023-07-22T12:20:25;3.53;;;2.70;;
62687;SDS011;48752;51.056;17.056;2023-07-22T12:22:55;2.08;;;1.85;;
62687;SDS011;48752;51.056;17.056;2023-07-22T12:25:22;2.47;;;2.03;;
62687;SDS011;48752;51.056;17.056;2023-07-22T12:27:48;2.03;;;1.80;;
62687;SDS011;48752;51.056;17.056;2023-07-22T12:30:16;3.30;;;1.95;;
62687;SDS011;48752;51.056;17.056;2023-07-22T12:32:42;6.00;;;2.53;;
62687;SDS011;48752;51.056;17.056;2023-07-22T12:35:09;6.70;;;3.15;;
62687;SDS011;48752;51.056;17.056;2023-07-22T12:37:40;4.05;;;2.33;;
62687;SDS011;48752;51.056;17.056;2023-07-22T12:40:07;2.63;;;2.20;;
62687;SDS011;48752;51.056;17.056;2023-07-22T12:42:34;2.95;;;1.88;;
62687;SDS011;48752;51.056;17.056;2023-07-22T12:45:02;5.90;;;1.88;;
62687;SDS011;48752;51.056;17.056;2023-07-22T12:47:29;3.55;;;1.77;;
62687;SDS011;48752;51.056;17.056;2023-07-22T12:49:56;2.00;;;1.48;;
62687;SDS011;48752;51.056;17.056;2023-07-22T12:52:22;2.38;;;1.80;;
62687;SDS011;48752;51.056;17.056;2023-07-22T12:54:50;2.45;;;1.80;;
62687;SDS011;48752;51.056;17.056;2023-07-22T12:57:18;5.13;;;1.95;;
62687;SDS011;48752;51.056;17.056;2023-07-22T12:59:44;1.98;;;1.60;;
62687;SDS011;48752;51.056;17.056;2023-07-22T13:02:11;4.90;;;2.20;;
62687;SDS011;48752;51.056;17.056;2023-07-22T13:04:37;7.57;;;1.90;;
62687;SDS011;48752;51.056;17.056;2023-07-22T13:07:05;2.75;;;1.60;;
62687;SDS011;48752;51.056;17.056;2023-07-22T13:09:38;2.15;;;1.90;;
62687;SDS011;48752;51.056;17.056;2023-07-22T13:12:06;3.00;;;1.98;;
62687;SDS011;48752;51.056;17.056;2023-07-22T13:14:32;2.83;;;1.92;;
62687;SDS011;48752;51.056;17.056;2023-07-22T13:16:58;2.35;;;2.13;;
62687;SDS011;48752;51.056;17.056;2023-07-22T13:19:25;3.35;;;1.75;;
62687;SDS011;48752;51.056;17.056;2023-07-22T13:21:50;2.92;;;1.92;;
62687;SDS011;48752;51.056;17.056;2023-07-22T13:24:17;4.32;;;2.30;;
62687;SDS011;48752;51.056;17.056;2023-07-22T13:26:44;5.30;;;1.70;;
62687;SDS011;48752;51.056;17.056;2023-07-22T13:29:09;3.45;;;1.95;;
62687;SDS011;48752;51.056;17.056;2023-07-22T13:31:36;3.55;;;1.63;;
62687;SDS011;48752;51.056;17.056;2023-07-22T13:34:01;5.90;;;2.30;;
62687;SDS011;48752;51.056;17.056;2023-07-22T13:36:28;4.35;;;1.80;;
62687;SDS011;48752;51.056;17.056;2023-07-22T13:38:53;2.30;;;1.60;;
62687;SDS011;48752;51.056;17.056;2023-07-22T13:41:20;2.63;;;1.92;;
62687;SDS011;48752;51.056;17.056;2023-07-22T13:43:45;2.22;;;1.60;;
62687;SDS011;48752;51.056;17.056;2023-07-22T13:46:13;3.05;;;1.73;;
62687;SDS011;48752;51.056;17.056;2023-07-22T13:48:38;2.72;;;1.40;;
62687;SDS011;48752;51.056;17.056;2023-07-22T13:51:03;2.42;;;1.77;;
62687;SDS011;48752;51.056;17.056;2023-07-22T13:53:29;3.08;;;2.13;;
62687;SDS011;48752;51.056;17.056;2023-07-22T13:55:59;4.07;;;1.90;;
62687;SDS011;48752;51.056;17.056;2023-07-22T13:58:25;2.88;;;1.88;;
62687;SDS011;48752;51.056;17.056;2023-07-22T14:00:58;2.38;;;1.80;;
62687;SDS011;48752;51.056;17.056;2023-07-22T14:03:26;2.90;;;1.90;;
62687;SDS011;48752;51.056;17.056;2023-07-22T14:05:53;2.63;;;1.63;;
62687;SDS011;48752;51.056;17.056;2023-07-22T14:08:22;4.57;;;1.80;;
62687;SDS011;48752;51.056;17.056;2023-07-22T14:10:48;3.03;;;1.55;;
62687;SDS011;48752;51.056;17.056;2023-07-22T14:13:15;2.35;;;1.80;;
62687;SDS011;48752;51.056;17.056;2023-07-22T14:15:41;4.20;;;2.28;;
62687;SDS011;48752;51.056;17.056;2023-07-22T14:18:07;1.63;;;1.52;;
62687;SDS011;48752;51.056;17.056;2023-07-22T14:20:33;2.92;;;1.52;;
62687;SDS011;48752;51.056;17.056;2023-07-22T14:23:00;3.65;;;1.90;;
62687;SDS011;48752;51.056;17.056;2023-07-22T14:27:59;4.38;;;1.88;;
62687;SDS011;48752;51.056;17.056;2023-07-22T14:30:27;2.85;;;2.10;;
62687;SDS011;48752;51.056;17.056;2023-07-22T14:32:53;3.92;;;2.10;;
62687;SDS011;48752;51.056;17.056;2023-07-22T14:35:18;3.40;;;2.08;;
62687;SDS011;48752;51.056;17.056;2023-07-22T14:37:44;3.45;;;1.65;;
62687;SDS011;48752;51.056;17.056;2023-07-22T14:40:10;2.05;;;1.67;;
62687;SDS011;48752;51.056;17.056;2023-07-22T14:45:12;3.22;;;1.88;;
62687;SDS011;48752;51.056;17.056;2023-07-22T14:47:44;2.78;;;2.13;;
62687;SDS011;48752;51.056;17.056;2023-07-22T14:52:36;3.00;;;1.92;;
62687;SDS011;48752;51.056;17.056;2023-07-22T14:55:02;4.05;;;1.85;;